Terminal Aerodrome Forecast
Issued by NWS Central Illinois

Home | Current Version | Previous Version | Text Only | Print | Product List | Glossary On
Versions: 1 2 3 4 5 6 7 8 9 10 11 12 13 14 15 16 17 18 19 20
000
FTUS43 KILX 251100
TAFPIA
TAF
KPIA 251139Z 2512/2612 08007KT P6SM -RA OVC035
     FM251400 04007KT 5SM -RA BR OVC025
      TEMPO 2516/2518 3SM -RASN BR OVC012
     FM251900 03015G25KT 1SM -SN BR OVC006
     FM252300 02013G23KT P6SM OVC015
     FM260400 36010KT P6SM BKN025=

USA.gov is the U.S. government's official web portal to all federal, state and local government web resources and services.